Blue Agave — 6YSS8 — position and weather

sailwx.info

Track history (hours):
 
Tides and Currents Weather Stations Pressure Air Temp Water Temp Dewpoint Dewpoint Depression Visibility Wind Speed Wind Dir Waves Ship Positions

Blue Agave

Last reported at 2018-Jun-22 13:26 UTC. Time now 2018-Jun-23 15:33 UTC.
Position N 43°44' E 007°26'.

Length 38 m; draft 2.3 m.

Type: Pleasure craft. MMSI: 339494000.

Date/timePositionNaut miles runAvg speedWind from/ knotsBaromVisibWave heightAir tempDewpointWater temp
2018-Jun-22 13:26N 43°44' E 007°26'6712.2
2018-Jun-22 08:00N 44°16' E 008°47'713.6
2018-Jun-22 07:30N 44°17' E 008°57'12 0.3
2018-Jun-20 14:36N 44°17' E 009°13'113.2
2018-Jun-20 14:30N 44°18' E 009°11'713.5
2018-Jun-20 13:58N 44°21' E 009°02'611.9
2018-Jun-20 13:30N 44°24' E 008°56'1 1.9
2018-Jun-20 12:56N 44°25' E 008°55'0 0.0
2018-Jun-20 12:20N 44°25' E 008°55'0 0.0
2018-Jun-20 11:56N 44°25' E 008°56'  
Track history (hours):
 
Tides and Currents Weather Stations Pressure Air Temp Water Temp Dewpoint Dewpoint Depression Visibility Wind Speed Wind Dir Waves Ship Positions

Blue Agave

Last reported at 2018-Jun-22 13:26 UTC. Time now 2018-Jun-23 15:33 UTC.
Position N 43°44' E 007°26'.

Length 38 m; draft 2.3 m.

Type: Pleasure craft. MMSI: 339494000.

Date/timePositionNaut miles runAvg speedWind from/ knotsBaromVisibWave heightAir tempDewpointWater temp
2018-Jun-22 13:26N 43°44' E 007°26'6712.2
2018-Jun-22 08:00N 44°16' E 008°47'713.6
2018-Jun-22 07:30N 44°17' E 008°57'12 0.3
2018-Jun-20 14:36N 44°17' E 009°13'113.2
2018-Jun-20 14:30N 44°18' E 009°11'713.5
2018-Jun-20 13:58N 44°21' E 009°02'611.9
2018-Jun-20 13:30N 44°24' E 008°56'1 1.9
2018-Jun-20 12:56N 44°25' E 008°55'0 0.0
2018-Jun-20 12:20N 44°25' E 008°55'0 0.0
2018-Jun-20 11:56N 44°25' E 008°56'  

Dump ship's entire track history